»·PEaware :: WAT350 KSEA-KDEN

WAT350 :: KSEA-KDEN

FLIGHT INFORMATION

Flight Status: Arrived
Operator:
Walker Air Transport
More flights by this operator :: More flights under this callsign
Pilot: David M. (11480)
Aircraft: AIRBUS A300B4-600
(A306)
More flights by this aircraft type
Origin: KSEA Seattle-Tacoma Intl
United States
Destination: KDEN Denver Intl
United States
More flights between these airports :: More routes between these airports
Route: SEA7 NORMY J90 MWH DOXIE WYS TOFUU FLATI2
File this flight plan on PilotEdge
Remarks: RMK / SIMBRIEF
Altitude:
(Current/Filed)
35,000ft
Speed:
(Current/Filed)
463kts
Departed: 29-Jan-21 07:50 PM
Arrived: 29-Jan-21 09:59 PM
Distance/Time
Traveled:
888nm/2:08
Distance/Time
To Go:
Arrived

Flight Plot

Page will automatically refresh every two minutes.

Flight plan parsing failed; only flown route is shown


Map Options




Map Legend


Flown Route
Filed Route
Departure Airport
Arrival Airport
Navaid (VOR, NDB)
Fix

Horizontal Profiles

Position Reports

Time Latitude Longitude Heading Altitude Ground
Speed
29-Jan-21 19:17 47.445999 -122.304703 89 401ft 0kts
29-Jan-21 19:18 47.445999 -122.304703 89 401ft 0kts
29-Jan-21 19:19 47.445999 -122.304703 89 401ft 0kts
29-Jan-21 19:20 47.445999 -122.304703 89 401ft 0kts
29-Jan-21 19:21 47.445999 -122.304703 89 401ft 0kts
29-Jan-21 19:22 47.445999 -122.304703 89 401ft 0kts
29-Jan-21 19:23 47.445999 -122.304703 89 401ft 0kts
29-Jan-21 19:24 47.445999 -122.304703 89 401ft 0kts
29-Jan-21 19:25 47.445999 -122.304703 89 401ft 0kts
29-Jan-21 19:26 47.445999 -122.304703 89 401ft 0kts
29-Jan-21 19:27 47.445999 -122.304703 89 401ft 0kts
29-Jan-21 19:28 47.445999 -122.304703 89 401ft 0kts
29-Jan-21 19:29 47.445999 -122.304703 89 401ft 0kts
29-Jan-21 19:30 47.445999 -122.304703 89 401ft 0kts
29-Jan-21 19:31 47.445999 -122.304703 89 401ft 0kts
29-Jan-21 19:32 47.445999 -122.304703 89 401ft 0kts
29-Jan-21 19:33 47.445999 -122.304703 89 401ft 0kts
29-Jan-21 19:34 47.445999 -122.304703 89 401ft 0kts
29-Jan-21 19:35 47.445999 -122.304703 89 401ft 0kts
29-Jan-21 19:36 47.445999 -122.304703 89 401ft 0kts
29-Jan-21 19:37 47.445999 -122.304703 89 401ft 0kts
29-Jan-21 19:38 47.445999 -122.304731 89 401ft 1kts
29-Jan-21 19:39 47.445773 -122.305408 22 399ft 2kts
29-Jan-21 19:40 47.445588 -122.305464 359 398ft 0kts
29-Jan-21 19:41 47.445588 -122.305464 359 398ft 0kts
29-Jan-21 19:42 47.445589 -122.305464 359 398ft 0kts
29-Jan-21 19:43 47.445591 -122.305463 0 398ft 0kts
29-Jan-21 19:44 47.449435 -122.305254 2 412ft 20kts
29-Jan-21 19:45 47.453307 -122.304998 0 433ft 14kts
29-Jan-21 19:46 47.457630 -122.304986 0 450ft 19kts
29-Jan-21 19:47 47.463160 -122.305610 324 430ft 11kts
29-Jan-21 19:48 47.463606 -122.306230 305 423ft 0kts
29-Jan-21 19:49 47.461232 -122.307764 179 431ft 63kts
29-Jan-21 19:50 47.414779 -122.306761 180 2039ft 210kts
29-Jan-21 19:51 47.355666 -122.305157 176 6199ft 217kts
29-Jan-21 19:52 47.296405 -122.291994 136 9587ft 231kts
29-Jan-21 19:53 47.305420 -122.187892 66 11290ft 321kts
29-Jan-21 19:54 47.343292 -122.049433 69 12843ft 399kts
29-Jan-21 19:55 47.384425 -121.893469 69 15870ft 419kts
29-Jan-21 19:56 47.427274 -121.730019 70 18507ft 436kts
29-Jan-21 19:57 47.429343 -121.551113 94 20634ft 445kts
29-Jan-21 19:58 47.425730 -121.366355 93 22171ft 455kts
29-Jan-21 19:59 47.422704 -121.177597 93 23173ft 462kts
29-Jan-21 20:00 47.419486 -120.986520 92 23697ft 468kts
29-Jan-21 20:01 47.415927 -120.793814 92 24199ft 469kts
29-Jan-21 20:02 47.412024 -120.601853 92 24702ft 468kts
29-Jan-21 20:03 47.401643 -120.411251 103 25203ft 465kts
29-Jan-21 20:04 47.371006 -120.225261 105 25703ft 467kts
29-Jan-21 20:05 47.339140 -120.038059 105 26207ft 479kts
29-Jan-21 20:06 47.306062 -119.845627 105 26713ft 487kts
29-Jan-21 20:07 47.272477 -119.651526 105 27220ft 490kts
29-Jan-21 20:08 47.238114 -119.457264 105 27899ft 492kts
29-Jan-21 20:09 47.199974 -119.264453 116 29274ft 491kts
29-Jan-21 20:10 47.141026 -119.083563 116 31473ft 490kts
29-Jan-21 20:11 47.084389 -118.901244 115 34169ft 495kts
29-Jan-21 20:12 47.027352 -118.717446 113 34901ft 494kts
29-Jan-21 20:13 46.970211 -118.534356 113 34903ft 495kts
29-Jan-21 20:14 46.912416 -118.350533 114 34902ft 497kts
29-Jan-21 20:15 46.854335 -118.166980 114 34906ft 499kts
29-Jan-21 20:16 46.795752 -117.983460 114 34902ft 499kts
29-Jan-21 20:17 46.736714 -117.799910 114 34890ft 499kts
29-Jan-21 20:18 46.677506 -117.617190 115 34892ft 499kts
29-Jan-21 20:19 46.618008 -117.434899 115 34893ft 499kts
29-Jan-21 20:20 46.558209 -117.252833 115 34887ft 499kts
29-Jan-21 20:21 46.497945 -117.070783 115 34897ft 500kts
29-Jan-21 20:23 46.437578 -116.889739 113 34909ft 499kts
29-Jan-21 20:24 46.376785 -116.708702 113 34910ft 499kts
29-Jan-21 20:25 46.315838 -116.528459 113 34895ft 498kts
29-Jan-21 20:26 46.254656 -116.348770 114 34867ft 499kts
29-Jan-21 20:27 46.193258 -116.169533 114 34864ft 499kts
29-Jan-21 20:28 46.131304 -115.990064 114 34865ft 499kts
29-Jan-21 20:29 46.069174 -115.811297 114 34867ft 499kts
29-Jan-21 20:30 46.006616 -115.632520 114 34868ft 500kts
29-Jan-21 20:31 45.943947 -115.454622 114 34869ft 499kts
29-Jan-21 20:32 45.881159 -115.277480 115 34858ft 499kts
29-Jan-21 20:33 45.821120 -115.098857 109 34859ft 493kts
29-Jan-21 20:34 45.772426 -114.917415 109 34855ft 485kts
29-Jan-21 20:34 45.732200 -114.767107 109 34808ft 485kts
29-Jan-21 20:36 45.675668 -114.556824 109 34790ft 485kts
29-Jan-21 20:36 45.635141 -114.407152 109 34790ft 485kts
29-Jan-21 20:38 45.578018 -114.197743 110 34788ft 485kts
29-Jan-21 20:38 45.536934 -114.048431 110 34789ft 485kts
29-Jan-21 20:40 45.478929 -113.839331 110 34790ft 485kts
29-Jan-21 20:41 45.429057 -113.661039 110 34791ft 485kts
29-Jan-21 20:41 45.387196 -113.512418 110 34791ft 485kts
29-Jan-21 20:42 45.336680 -113.334284 111 34790ft 485kts
29-Jan-21 20:43 45.285996 -113.156751 111 34756ft 486kts
29-Jan-21 20:44 45.234895 -112.979189 111 34708ft 485kts
29-Jan-21 20:45 45.183694 -112.802602 112 34708ft 481kts
29-Jan-21 20:46 45.132611 -112.627675 112 34708ft 480kts
29-Jan-21 20:47 45.081408 -112.453551 113 34709ft 480kts
29-Jan-21 20:48 45.029796 -112.279210 113 34709ft 479kts
29-Jan-21 20:49 44.978211 -112.106206 114 34742ft 478kts
29-Jan-21 20:50 44.926216 -111.933051 114 34752ft 478kts
29-Jan-21 20:51 44.874184 -111.760957 114 34753ft 478kts
29-Jan-21 20:52 44.821614 -111.588257 114 34754ft 478kts
29-Jan-21 20:53 44.769118 -111.416968 114 34755ft 478kts
29-Jan-21 20:54 44.714807 -111.246485 121 34749ft 476kts
29-Jan-21 20:55 44.649233 -111.087861 139 34757ft 472kts
29-Jan-21 20:56 44.552171 -110.966610 141 34780ft 464kts
29-Jan-21 20:57 44.457920 -110.846416 141 34790ft 454kts
29-Jan-21 20:58 44.364915 -110.727780 140 34778ft 454kts
29-Jan-21 20:59 44.271613 -110.609124 141 34774ft 454kts
29-Jan-21 21:00 44.178139 -110.490731 141 34768ft 454kts
29-Jan-21 21:01 44.084362 -110.372475 141 34767ft 454kts
29-Jan-21 21:02 43.990649 -110.254939 142 34742ft 454kts
29-Jan-21 21:03 43.897120 -110.138098 142 34719ft 454kts
29-Jan-21 21:04 43.803193 -110.021329 141 34729ft 454kts
29-Jan-21 21:05 43.708940 -109.904657 142 34727ft 454kts
29-Jan-21 21:06 43.615128 -109.789048 142 34730ft 454kts
29-Jan-21 21:07 43.520596 -109.673081 142 34728ft 454kts
29-Jan-21 21:08 43.426224 -109.557831 142 34724ft 454kts
29-Jan-21 21:09 43.331724 -109.442914 142 34728ft 454kts
29-Jan-21 21:10 43.237166 -109.328437 142 34724ft 453kts
29-Jan-21 21:11 43.142581 -109.214444 142 34718ft 453kts
29-Jan-21 21:12 43.047794 -109.100705 143 34695ft 453kts
29-Jan-21 21:13 42.953302 -108.987778 144 34694ft 452kts
29-Jan-21 21:14 42.858660 -108.875173 144 34701ft 452kts
29-Jan-21 21:15 42.763792 -108.762768 144 34701ft 451kts
29-Jan-21 21:16 42.668399 -108.650250 144 34702ft 455kts
29-Jan-21 21:17 42.572863 -108.537988 144 34711ft 456kts
29-Jan-21 21:18 42.477300 -108.426158 144 34705ft 453kts
29-Jan-21 21:19 42.381692 -108.314823 145 34699ft 454kts
29-Jan-21 21:20 42.285889 -108.203693 144 34705ft 454kts
29-Jan-21 21:21 42.190213 -108.093193 145 34744ft 454kts
29-Jan-21 21:22 42.094404 -107.982951 145 34772ft 452kts
29-Jan-21 21:23 41.998565 -107.873159 144 34774ft 453kts
29-Jan-21 21:24 41.902879 -107.764001 145 34774ft 452kts
29-Jan-21 21:25 41.807044 -107.654908 138 34784ft 460kts
29-Jan-21 21:26 41.721337 -107.528340 137 34783ft 459kts
29-Jan-21 21:27 41.635766 -107.401231 137 34786ft 459kts
29-Jan-21 21:28 41.550352 -107.274610 137 34780ft 458kts
29-Jan-21 21:29 41.464991 -107.148531 137 34786ft 459kts
29-Jan-21 21:30 41.378961 -107.022632 137 34797ft 460kts
29-Jan-21 21:31 41.292516 -106.896446 138 34797ft 463kts
29-Jan-21 21:32 41.205168 -106.769014 138 34799ft 468kts
29-Jan-21 21:33 41.117491 -106.641428 138 34799ft 468kts
29-Jan-21 21:34 41.029619 -106.514143 139 34790ft 466kts
29-Jan-21 21:35 40.942391 -106.388308 139 34792ft 463kts
29-Jan-21 21:36 40.856252 -106.262987 133 32971ft 454kts
29-Jan-21 21:37 40.800457 -106.120743 122 30120ft 428kts
29-Jan-21 21:38 40.750511 -105.981662 121 28028ft 423kts
29-Jan-21 21:39 40.699517 -105.839602 119 25852ft 417kts
29-Jan-21 21:40 40.651796 -105.707214 118 23772ft 390kts
29-Jan-21 21:41 40.605843 -105.580416 116 21759ft 378kts
29-Jan-21 21:42 40.561155 -105.457322 115 19746ft 369kts
29-Jan-21 21:43 40.517487 -105.337708 115 18108ft 351kts
29-Jan-21 21:44 40.477341 -105.228276 115 17071ft 303kts
29-Jan-21 21:45 40.447467 -105.130848 106 15855ft 300kts
29-Jan-21 21:46 40.422446 -105.025727 104 14886ft 312kts
29-Jan-21 21:47 40.397050 -104.919199 108 14144ft 291kts
29-Jan-21 21:48 40.374180 -104.823322 109 13250ft 269kts
29-Jan-21 21:49 40.340679 -104.739833 143 12020ft 254kts
29-Jan-21 21:50 40.281804 -104.695457 176 11211ft 248kts
29-Jan-21 21:51 40.213975 -104.693709 181 10184ft 246kts
29-Jan-21 21:52 40.148327 -104.693172 183 10013ft 231kts
29-Jan-21 21:53 40.082955 -104.693890 182 9159ft 236kts
29-Jan-21 21:54 40.021973 -104.694557 183 7977ft 202kts
29-Jan-21 21:55 39.974733 -104.695119 183 7015ft 158kts
29-Jan-21 21:56 39.931387 -104.695643 182 6174ft 154kts
29-Jan-21 21:57 39.889315 -104.696115 182 5447ft 133kts
29-Jan-21 21:58 39.874113 -104.694211 179 5447ft 31kts
29-Jan-21 21:59 39.866187 -104.694331 180 5447ft 27kts
29-Jan-21 22:00 39.860430 -104.690448 107 5447ft 20kts
29-Jan-21 22:01 39.860325 -104.682904 90 5447ft 21kts
29-Jan-21 22:02 39.859484 -104.677843 180 5447ft 0kts
29-Jan-21 22:03 39.859483 -104.677843 180 5447ft 0kts
29-Jan-21 22:04 39.859483 -104.677843 180 5447ft 0kts
29-Jan-21 22:05 39.859483 -104.677843 180 5447ft 0kts
29-Jan-21 22:06 39.859483 -104.677843 180 5447ft 0kts
29-Jan-21 22:07 39.859483 -104.677843 180 5447ft 0kts
29-Jan-21 22:08 39.859483 -104.677843 180 5447ft 0kts
29-Jan-21 22:10 39.859483 -104.677843 180 5447ft 0kts
29-Jan-21 22:11 39.859483 -104.677843 180 5447ft 0kts
29-Jan-21 22:12 39.859483 -104.677843 180 5447ft 0kts
29-Jan-21 22:13 39.859483 -104.677843 180 5447ft 0kts

Navigation Log

Ident Type
Flight plan parsing failed, navigation log unavailable